Time;durP1;ratioP1;P1;durP2;ratioP2;P2;SDS_P1;SDS_P2;PMS_P1;PMS_P2;Temp;Humidity;BMP_temperature;BMP_pressure;BME280_temperature;BME280_humidity;BME280_pressure;Samples;Min_cycle;Max_cycle;Signal;HPM_P1;HPM_P2
2023/06/26 00:00:41;;;;;;;1999.90;999.90;;;24.60;85.80;;;;;;5091797;28;20166;-70
2023/06/26 00:03:07;;;;;;;1999.90;999.90;;;24.50;85.20;;;;;;5091563;28;20226;-70
2023/06/26 00:05:32;;;;;;;1999.90;999.90;;;24.40;85.80;;;;;;5091693;28;20190;-70
2023/06/26 00:08:00;;;;;;;1999.90;999.90;;;24.40;87.00;;;;;;5091669;28;20186;-70
2023/06/26 00:10:27;;;;;;;1999.90;999.90;;;24.30;87.10;;;;;;5091779;28;20659;-69
2023/06/26 00:12:53;;;;;;;1999.90;999.90;;;24.30;88.30;;;;;;5091318;28;20408;-70
2023/06/26 00:15:19;;;;;;;1999.90;999.90;;;24.20;88.90;;;;;;5091827;28;20447;-70
2023/06/26 00:17:44;;;;;;;1999.90;999.90;;;24.20;89.70;;;;;;5091641;28;20367;-70
2023/06/26 00:20:10;;;;;;;1999.90;999.90;;;24.10;90.30;;;;;;5091663;28;20216;-67
2023/06/26 00:22:36;;;;;;;1999.90;999.90;;;24.10;90.50;;;;;;5091281;28;20209;-69
2023/06/26 00:25:03;;;;;;;1999.90;999.90;;;24.00;90.80;;;;;;5091516;28;20183;-67
2023/06/26 00:27:28;;;;;;;1999.90;999.90;;;24.00;92.00;;;;;;5091561;28;20654;-68
2023/06/26 00:29:54;;;;;;;1999.90;999.90;;;24.00;92.30;;;;;;5091533;28;20479;-68
2023/06/26 00:32:19;;;;;;;1999.90;999.90;;;24.00;93.40;;;;;;5091310;28;20163;-67
2023/06/26 00:34:46;;;;;;;1999.90;999.90;;;24.00;93.70;;;;;;5091484;28;20189;-68
2023/06/26 00:37:12;;;;;;;1999.90;999.90;;;23.90;94.50;;;;;;5091589;28;20556;-67
2023/06/26 00:39:37;;;;;;;1999.90;999.90;;;23.90;95.10;;;;;;5095164;28;20400;-67
2023/06/26 00:42:03;;;;;;;1999.90;999.90;;;23.80;94.90;;;;;;5094855;28;20195;-68
2023/06/26 00:44:29;;;;;;;1999.90;999.90;;;23.80;96.10;;;;;;5095045;28;20274;-67
2023/06/26 00:46:54;;;;;;;1999.90;999.90;;;23.80;96.60;;;;;;5095130;28;20173;-67
2023/06/26 00:49:20;;;;;;;1999.90;999.90;;;23.90;96.80;;;;;;5094903;28;20194;-68
2023/06/26 00:51:46;;;;;;;1999.90;999.90;;;23.90;96.40;;;;;;5094660;28;20169;-67
2023/06/26 00:54:14;;;;;;;1999.90;999.90;;;23.80;96.40;;;;;;5094879;28;20162;-67
2023/06/26 00:56:40;;;;;;;1999.90;999.90;;;23.70;96.80;;;;;;5094743;28;20435;-67
2023/06/26 00:59:05;;;;;;;1999.90;999.90;;;23.70;97.70;;;;;;5094815;28;20379;-68
2023/06/26 01:01:31;;;;;;;1999.90;999.90;;;23.60;98.40;;;;;;5094545;28;20624;-68
2023/06/26 01:03:57;;;;;;;1999.90;999.90;;;23.50;98.60;;;;;;5094648;28;20166;-67
2023/06/26 01:06:25;;;;;;;1999.90;999.90;;;23.40;99.90;;;;;;5094663;28;20202;-67
2023/06/26 01:08:51;;;;;;;1999.90;999.90;;;23.40;99.90;;;;;;5094608;28;20197;-67
2023/06/26 01:11:17;;;;;;;1999.90;999.90;;;23.30;99.90;;;;;;5094290;28;20892;-67
2023/06/26 01:13:46;;;;;;;1999.90;999.90;;;23.30;99.90;;;;;;5094527;28;20366;-67
2023/06/26 01:16:12;;;;;;;1999.90;999.90;;;23.20;99.90;;;;;;5094361;28;20391;-68
2023/06/26 01:18:41;;;;;;;1999.90;999.90;;;23.30;99.90;;;;;;5094713;28;20894;-68
2023/06/26 01:21:09;;;;;;;1999.90;999.90;;;23.20;99.90;;;;;;5094079;28;20404;-68
2023/06/26 01:23:58;;;;;;;1999.90;999.90;;;23.20;99.90;;;;;;5094323;28;20463;-67
2023/06/26 01:26:29;;;;;;;1999.90;999.90;;;23.10;99.90;;;;;;5094194;28;20457;-68
2023/06/26 01:28:56;;;;;;;1999.90;999.90;;;23.00;99.90;;;;;;5094090;28;20963;-68
2023/06/26 01:31:23;;;;;;;1999.90;999.90;;;23.00;99.90;;;;;;5093874;28;20412;-68
2023/06/26 01:33:50;;;;;;;1999.90;999.90;;;22.90;99.90;;;;;;5094148;28;20471;-67
2023/06/26 01:36:16;;;;;;;1999.90;999.90;;;22.80;99.90;;;;;;5094045;28;20391;-67
2023/06/26 01:38:42;;;;;;;1999.90;999.90;;;22.80;99.90;;;;;;5094137;28;20375;-68
2023/06/26 01:41:07;;;;;;;1999.90;999.90;;;22.80;99.90;;;;;;5093808;28;20523;-67
2023/06/26 01:44:14;;;;;;;1999.90;999.90;;;22.70;99.90;;;;;;5093953;28;20544;-67
2023/06/26 01:47:03;;;;;;;1999.90;999.90;;;22.70;99.90;;;;;;5093815;28;20197;-67
2023/06/26 01:49:56;;;;;;;1999.90;999.90;;;22.60;99.90;;;;;;5093624;28;20429;-67
2023/06/26 01:52:40;;;;;;;1999.90;999.90;;;22.50;99.90;;;;;;5093595;28;20381;-67
2023/06/26 01:55:19;;;;;;;1999.90;999.90;;;22.40;99.90;;;;;;5093722;28;20451;-67
2023/06/26 01:57:47;;;;;;;1999.90;999.90;;;22.40;99.90;;;;;;5093895;28;20939;-68
2023/06/26 02:00:17;;;;;;;1999.90;999.90;;;22.40;99.90;;;;;;5093625;28;20905;-67
2023/06/26 02:02:44;;;;;;;1999.90;999.90;;;22.30;99.90;;;;;;5093368;28;20399;-67
2023/06/26 02:05:09;;;;;;;1999.90;999.90;;;22.30;99.90;;;;;;5093504;28;20477;-67
2023/06/26 02:07:35;;;;;;;1999.90;999.90;;;22.20;99.90;;;;;;5093514;28;20467;-67
2023/06/26 02:10:02;;;;;;;1999.90;999.90;;;22.10;99.90;;;;;;5093374;28;20197;-68
2023/06/26 02:12:27;;;;;;;1999.90;999.90;;;22.10;99.90;;;;;;5093276;28;20539;-67
2023/06/26 02:14:53;;;;;;;1999.90;999.90;;;22.10;99.90;;;;;;5093358;28;20403;-68
2023/06/26 02:17:18;;;;;;;1999.90;999.90;;;22.00;99.90;;;;;;5093314;28;20158;-67
2023/06/26 02:19:47;;;;;;;1999.90;999.90;;;21.90;99.90;;;;;;5093324;28;20228;-67
2023/06/26 02:22:14;;;;;;;1999.90;999.90;;;21.90;99.90;;;;;;5092744;28;20186;-67
2023/06/26 02:24:40;;;;;;;1999.90;999.90;;;21.90;99.90;;;;;;5093142;28;20523;-68
2023/06/26 02:27:06;;;;;;;1999.90;999.90;;;21.90;99.90;;;;;;5093155;28;20961;-67
2023/06/26 02:29:31;;;;;;;1999.90;999.90;;;21.90;99.90;;;;;;5093513;28;20204;-68
2023/06/26 02:31:57;;;;;;;1999.90;999.90;;;21.90;99.90;;;;;;5092717;28;20163;-67
2023/06/26 02:34:22;;;;;;;1999.90;999.90;;;21.80;99.90;;;;;;5092973;28;20498;-67
2023/06/26 02:36:48;;;;;;;1999.90;999.90;;;21.60;99.90;;;;;;5092924;28;20174;-67
2023/06/26 02:39:14;;;;;;;1999.90;999.90;;;21.30;99.90;;;;;;5093135;28;20177;-69
2023/06/26 02:41:40;;;;;;;1999.90;999.90;;;21.20;99.90;;;;;;5092909;28;20243;-69
2023/06/26 02:44:06;;;;;;;1999.90;999.90;;;21.30;99.90;;;;;;5092886;28;20397;-67
2023/06/26 02:46:33;;;;;;;1999.90;999.90;;;21.40;99.90;;;;;;5092770;28;20193;-69
2023/06/26 02:48:59;;;;;;;1999.90;999.90;;;21.60;99.90;;;;;;5092698;28;20912;-67
2023/06/26 02:51:24;;;;;;;1999.90;999.90;;;21.90;99.90;;;;;;5092411;28;20465;-67
2023/06/26 02:53:50;;;;;;;1999.90;999.90;;;22.10;99.90;;;;;;5092730;28;20428;-69
2023/06/26 02:56:15;;;;;;;1999.90;999.90;;;22.20;99.90;;;;;;5092546;28;20206;-68
2023/06/26 02:58:41;;;;;;;1999.90;999.90;;;22.20;99.90;;;;;;5092767;28;20170;-67
2023/06/26 03:01:07;;;;;;;1999.90;999.90;;;22.30;99.90;;;;;;5091620;28;20215;-67
2023/06/26 03:03:40;;;;;;;1999.90;999.90;;;22.30;99.90;;;;;;5092499;28;20172;-67
2023/06/26 03:06:07;;;;;;;1999.90;999.90;;;22.40;99.90;;;;;;5092640;28;20277;-67
2023/06/26 03:08:33;;;;;;;1999.90;999.90;;;22.30;99.90;;;;;;5092515;28;20459;-68
2023/06/26 03:10:58;;;;;;;1999.90;999.90;;;22.30;99.90;;;;;;5092093;28;20882;-68
2023/06/26 03:13:24;;;;;;;1999.90;999.90;;;22.30;99.90;;;;;;5092408;28;20174;-67
2023/06/26 03:15:49;;;;;;;1999.90;999.90;;;22.30;99.90;;;;;;5092311;28;20188;-67
2023/06/26 03:18:15;;;;;;;1999.90;999.90;;;22.30;99.90;;;;;;5092208;28;20173;-67
2023/06/26 03:20:41;;;;;;;1999.90;999.90;;;22.30;99.90;;;;;;5092207;28;20162;-68
2023/06/26 03:23:06;;;;;;;1999.90;999.90;;;22.30;99.90;;;;;;5092219;28;20190;-67
2023/06/26 03:25:32;;;;;;;1999.90;999.90;;;22.30;99.90;;;;;;5092228;28;20193;-67
2023/06/26 03:27:57;;;;;;;1999.90;999.90;;;22.30;99.90;;;;;;5092252;28;20708;-67
2023/06/26 03:30:23;;;;;;;1999.90;999.90;;;22.20;99.90;;;;;;5092203;28;20284;-68
2023/06/26 03:32:48;;;;;;;1999.90;999.90;;;22.20;99.90;;;;;;5091929;28;20175;-67
2023/06/26 03:35:14;;;;;;;1999.90;999.90;;;22.20;99.90;;;;;;5092098;28;20189;-67
2023/06/26 03:37:40;;;;;;;1999.90;999.90;;;22.10;99.90;;;;;;5092288;28;20166;-67
2023/06/26 03:40:06;;;;;;;1999.90;999.90;;;22.10;99.90;;;;;;5091961;28;20180;-68
2023/06/26 03:42:32;;;;;;;1999.90;999.90;;;22.10;99.90;;;;;;5091881;28;20557;-67
2023/06/26 03:44:57;;;;;;;1999.90;999.90;;;22.00;99.90;;;;;;5091898;28;20406;-66
2023/06/26 03:47:23;;;;;;;1999.90;999.90;;;22.00;99.90;;;;;;5092058;28;20170;-66
2023/06/26 03:49:49;;;;;;;1999.90;999.90;;;22.00;99.90;;;;;;5091975;28;20250;-67
2023/06/26 03:52:14;;;;;;;1999.90;999.90;;;22.00;99.90;;;;;;5091731;28;20229;-67
2023/06/26 03:54:40;;;;;;;1999.90;999.90;;;21.90;99.90;;;;;;5091910;28;20173;-67
2023/06/26 03:57:05;;;;;;;1999.90;999.90;;;21.80;99.90;;;;;;5092004;28;20644;-66
2023/06/26 03:59:31;;;;;;;1999.90;999.90;;;21.70;99.90;;;;;;5091910;28;20169;-67
2023/06/26 04:01:56;;;;;;;1999.90;999.90;;;21.70;99.90;;;;;;5091652;28;20166;-67
2023/06/26 04:04:22;;;;;;;1999.90;999.90;;;21.60;99.90;;;;;;5091899;28;20180;-67
2023/06/26 04:06:48;;;;;;;1999.90;999.90;;;21.60;99.90;;;;;;5091930;28;20173;-67
2023/06/26 04:09:13;;;;;;;1999.90;999.90;;;21.60;99.90;;;;;;5091761;28;20212;-67
2023/06/26 04:11:39;;;;;;;1999.90;999.90;;;21.60;99.90;;;;;;5091549;28;20244;-67
2023/06/26 04:14:04;;;;;;;1999.90;999.90;;;21.60;99.90;;;;;;5094791;28;20170;-67
2023/06/26 04:16:30;;;;;;;1999.90;999.90;;;21.50;99.90;;;;;;5095602;28;20189;-68
2023/06/26 04:18:56;;;;;;;1999.90;999.90;;;21.50;99.90;;;;;;5095633;28;20230;-67
2023/06/26 04:21:26;;;;;;;1999.90;999.90;;;21.40;99.90;;;;;;5095293;28;20180;-67
2023/06/26 04:23:52;;;;;;;1999.90;999.90;;;21.30;99.90;;;;;;5095587;28;20173;-66
2023/06/26 04:26:17;;;;;;;1999.90;999.90;;;21.30;99.90;;;;;;5095398;28;20431;-67
2023/06/26 04:28:43;;;;;;;1999.90;999.90;;;21.40;99.90;;;;;;5095376;28;20197;-68
2023/06/26 04:31:09;;;;;;;1999.90;999.90;;;21.30;99.90;;;;;;5095076;28;20169;-68
2023/06/26 04:33:36;;;;;;;1999.90;999.90;;;21.30;99.90;;;;;;5095625;28;20181;-68
2023/06/26 04:36:03;;;;;;;1999.90;999.90;;;21.30;99.90;;;;;;5095223;28;20187;-67
2023/06/26 04:38:29;;;;;;;1999.90;999.90;;;21.20;99.90;;;;;;5095243;28;20411;-68
2023/06/26 04:40:55;;;;;;;1999.90;999.90;;;21.20;99.90;;;;;;5094979;28;20414;-67
2023/06/26 04:43:21;;;;;;;1999.90;999.90;;;21.20;99.90;;;;;;5095187;28;20406;-67
2023/06/26 04:45:46;;;;;;;1999.90;999.90;;;21.20;99.90;;;;;;5095085;28;20782;-66
2023/06/26 04:48:12;;;;;;;1999.90;999.90;;;21.20;99.90;;;;;;5095247;28;20539;-67
2023/06/26 04:50:38;;;;;;;1999.90;999.90;;;21.20;99.90;;;;;;5095166;28;20166;-67
2023/06/26 04:53:03;;;;;;;1999.90;999.90;;;21.10;99.90;;;;;;5094791;28;20597;-67
2023/06/26 04:55:30;;;;;;;1999.90;999.90;;;21.10;99.90;;;;;;5095314;28;20191;-68
2023/06/26 04:57:55;;;;;;;1999.90;999.90;;;21.10;99.90;;;;;;5095124;28;20705;-68
2023/06/26 05:00:21;;;;;;;1999.90;999.90;;;21.00;99.90;;;;;;5094800;28;20378;-67
2023/06/26 05:02:46;;;;;;;1999.90;999.90;;;21.00;99.90;;;;;;5094654;28;20544;-67
2023/06/26 05:05:12;;;;;;;1999.90;999.90;;;21.00;99.90;;;;;;5094745;28;20189;-67
2023/06/26 05:07:38;;;;;;;1999.90;999.90;;;21.00;99.90;;;;;;5094668;28;20647;-68
2023/06/26 05:10:04;;;;;;;1999.90;999.90;;;21.00;99.90;;;;;;5094718;28;20200;-67
2023/06/26 05:12:30;;;;;;;1999.90;999.90;;;20.90;99.90;;;;;;5094278;28;20403;-68
2023/06/26 05:14:55;;;;;;;1999.90;999.90;;;20.80;99.90;;;;;;5094423;28;20775;-67
2023/06/26 05:17:21;;;;;;;1999.90;999.90;;;20.80;99.90;;;;;;5094501;28;20171;-67
2023/06/26 05:19:46;;;;;;;1999.90;999.90;;;20.80;99.90;;;;;;5094475;28;20169;-67
2023/06/26 05:22:13;;;;;;;1999.90;999.90;;;20.90;99.90;;;;;;5094124;28;20206;-68
2023/06/26 05:24:40;;;;;;;1999.90;999.90;;;20.90;99.90;;;;;;5093757;28;20206;-67
2023/06/26 05:27:06;;;;;;;1999.90;999.90;;;20.90;99.90;;;;;;5094386;28;20781;-66
2023/06/26 05:29:32;;;;;;;1999.90;999.90;;;21.00;99.90;;;;;;5094179;28;20469;-67
2023/06/26 05:31:59;;;;;;;1999.90;999.90;;;21.00;99.90;;;;;;5093901;28;20396;-67
2023/06/26 05:34:28;;;;;;;1999.90;999.90;;;21.20;99.90;;;;;;5094043;28;20483;-67
2023/06/26 05:36:57;;;;;;;1999.90;999.90;;;21.20;99.90;;;;;;5094104;28;20407;-67
2023/06/26 05:39:23;;;;;;;1999.90;999.90;;;21.20;99.90;;;;;;5094110;28;20882;-67
2023/06/26 05:41:48;;;;;;;1999.90;999.90;;;21.10;99.90;;;;;;5093775;28;20412;-67
2023/06/26 05:44:14;;;;;;;1999.90;999.90;;;20.90;99.90;;;;;;5094080;28;20185;-67
2023/06/26 05:46:40;;;;;;;1999.90;999.90;;;20.80;99.90;;;;;;5093805;28;20419;-67
2023/06/26 05:49:05;;;;;;;1999.90;999.90;;;20.80;99.90;;;;;;5094026;28;20201;-67
2023/06/26 05:51:31;;;;;;;1999.90;999.90;;;20.80;99.90;;;;;;5093557;28;20156;-68
2023/06/26 05:53:57;;;;;;;1999.90;999.90;;;20.80;99.90;;;;;;5093897;28;20172;-68
2023/06/26 05:56:23;;;;;;;1999.90;999.90;;;20.70;99.90;;;;;;5093665;28;20184;-66
2023/06/26 05:58:49;;;;;;;1999.90;999.90;;;20.80;99.90;;;;;;5093806;28;20167;-67
2023/06/26 06:01:15;;;;;;;1999.90;999.90;;;20.80;99.90;;;;;;5093327;28;20970;-67
2023/06/26 06:03:40;;;;;;;1999.90;999.90;;;20.90;99.90;;;;;;5093775;28;20407;-67
2023/06/26 06:06:06;;;;;;;1999.90;999.90;;;20.90;99.90;;;;;;5093602;28;20685;-67
2023/06/26 06:08:32;;;;;;;1999.90;999.90;;;20.80;99.90;;;;;;5093506;28;20188;-67
2023/06/26 06:10:59;;;;;;;1999.90;999.90;;;20.70;99.90;;;;;;5093197;28;20172;-67
2023/06/26 06:13:25;;;;;;;1999.90;999.90;;;20.60;99.90;;;;;;5093413;28;20159;-66
2023/06/26 06:15:50;;;;;;;1999.90;999.90;;;20.60;99.90;;;;;;5093277;28;20487;-67
2023/06/26 06:18:16;;;;;;;1999.90;999.90;;;20.50;99.90;;;;;;5093417;28;20168;-66
2023/06/26 06:20:42;;;;;;;1999.90;999.90;;;20.50;99.90;;;;;;5093414;28;20180;-67
2023/06/26 06:23:07;;;;;;;1999.90;999.90;;;20.50;99.90;;;;;;5092952;28;20575;-68
2023/06/26 06:25:33;;;;;;;1999.90;999.90;;;20.60;99.90;;;;;;5093090;28;20196;-67
2023/06/26 06:27:58;;;;;;;1999.90;999.90;;;20.60;99.90;;;;;;5092866;28;20169;-67
2023/06/26 06:30:24;;;;;;;1999.90;999.90;;;20.60;99.90;;;;;;5093127;28;20172;-67
2023/06/26 06:32:52;;;;;;;1999.90;999.90;;;20.70;99.90;;;;;;5092887;28;20165;-70
2023/06/26 06:35:19;;;;;;;1999.90;999.90;;;20.70;99.90;;;;;;5092143;28;20261;-68
2023/06/26 06:37:45;;;;;;;1999.90;999.90;;;20.60;99.90;;;;;;5093032;28;20403;-69
2023/06/26 06:40:11;;;;;;;1999.90;999.90;;;20.60;99.90;;;;;;5092875;28;20380;-66
2023/06/26 06:42:36;;;;;;;1999.90;999.90;;;20.60;99.90;;;;;;5092533;28;20225;-69
2023/06/26 06:45:03;;;;;;;1999.90;999.90;;;20.70;99.90;;;;;;5092728;28;20404;-69
2023/06/26 06:47:29;;;;;;;1999.90;999.90;;;20.60;99.90;;;;;;5092533;28;20641;-70
2023/06/26 06:49:55;;;;;;;1999.90;999.90;;;20.60;99.90;;;;;;5092559;28;20513;-69
2023/06/26 06:52:21;;;;;;;1999.90;999.90;;;20.50;99.90;;;;;;5092413;28;20409;-70
2023/06/26 06:54:54;;;;;;;1999.90;999.90;;;20.60;99.90;;;;;;5092600;28;20658;-69
2023/06/26 06:57:23;;;;;;;1999.90;999.90;;;20.60;99.90;;;;;;5092595;28;20184;-70
2023/06/26 06:59:48;;;;;;;1999.90;999.90;;;20.70;99.90;;;;;;5092514;28;20448;-68
2023/06/26 07:02:16;;;;;;;1999.90;999.90;;;20.80;99.90;;;;;;5092306;28;20450;-69
2023/06/26 07:04:41;;;;;;;1999.90;999.90;;;20.80;99.90;;;;;;5092354;28;20261;-70
2023/06/26 07:07:08;;;;;;;1999.90;999.90;;;20.80;99.90;;;;;;5092463;28;20461;-70
2023/06/26 07:09:34;;;;;;;1999.90;999.90;;;20.90;99.90;;;;;;5092264;28;20635;-70
2023/06/26 07:12:00;;;;;;;1999.90;999.90;;;21.00;99.90;;;;;;5092106;28;20502;-70
2023/06/26 07:14:25;;;;;;;1999.90;999.90;;;21.00;99.90;;;;;;5092509;28;20544;-69
2023/06/26 07:16:51;;;;;;;1999.90;999.90;;;21.00;99.90;;;;;;5092420;28;20386;-69
2023/06/26 07:19:16;;;;;;;1999.90;999.90;;;21.00;99.90;;;;;;5092354;28;20170;-69
2023/06/26 07:21:44;;;;;;;1999.90;999.90;;;21.00;99.90;;;;;;5092049;28;20210;-70
2023/06/26 07:24:10;;;;;;;1999.90;999.90;;;21.00;99.90;;;;;;5092199;28;20177;-70
2023/06/26 07:26:36;;;;;;;1999.90;999.90;;;21.10;99.90;;;;;;5092281;28;20431;-70
2023/06/26 07:29:01;;;;;;;1999.90;999.90;;;21.20;99.90;;;;;;5092113;28;20816;-69
2023/06/26 07:31:27;;;;;;;1999.90;999.90;;;21.20;99.90;;;;;;5091886;28;20241;-70
2023/06/26 07:33:52;;;;;;;1999.90;999.90;;;21.20;99.90;;;;;;5092130;28;20181;-70
2023/06/26 07:36:18;;;;;;;1999.90;999.90;;;21.10;99.90;;;;;;5092073;28;20283;-70
2023/06/26 07:38:43;;;;;;;1999.90;999.90;;;21.30;99.90;;;;;;5091988;28;20268;-70
2023/06/26 07:41:09;;;;;;;1999.90;999.90;;;21.40;99.90;;;;;;5091712;28;20181;-70
2023/06/26 07:43:35;;;;;;;1999.90;999.90;;;21.40;99.90;;;;;;5091979;28;20177;-70
2023/06/26 07:46:00;;;;;;;1999.90;999.90;;;21.40;99.90;;;;;;5091936;28;20201;-69
2023/06/26 07:48:26;;;;;;;1999.90;999.90;;;21.60;99.90;;;;;;5095846;28;20193;-69
2023/06/26 07:50:51;;;;;;;1999.90;999.90;;;21.70;99.90;;;;;;5096060;28;20173;-70
2023/06/26 07:53:17;;;;;;;1999.90;999.90;;;21.90;99.90;;;;;;5095931;28;20252;-69
2023/06/26 07:55:43;;;;;;;1999.90;999.90;;;22.10;99.90;;;;;;5095950;28;20544;-70
2023/06/26 07:58:09;;;;;;;1999.90;999.90;;;22.20;99.90;;;;;;5096013;28;20176;-69
2023/06/26 08:00:35;;;;;;;1999.90;999.90;;;22.30;99.90;;;;;;5096052;28;20178;-70
2023/06/26 08:03:00;;;;;;;1999.90;999.90;;;22.60;99.90;;;;;;5095672;28;20379;-70
2023/06/26 08:05:26;;;;;;;1999.90;999.90;;;22.60;99.90;;;;;;5095843;28;20215;-70
2023/06/26 08:07:52;;;;;;;1999.90;999.90;;;22.60;99.90;;;;;;5095817;28;20181;-68
2023/06/26 08:10:17;;;;;;;1999.90;999.90;;;22.70;99.90;;;;;;5095901;28;20240;-68
2023/06/26 08:12:44;;;;;;;1999.90;999.90;;;22.60;99.90;;;;;;5095588;28;20643;-68
2023/06/26 08:15:11;;;;;;;1999.90;999.90;;;22.30;99.90;;;;;;5095727;28;20204;-68
2023/06/26 08:17:37;;;;;;;1999.90;999.90;;;22.30;99.90;;;;;;5095684;28;20462;-69
2023/06/26 08:20:04;;;;;;;1999.90;999.90;;;22.30;99.90;;;;;;5095513;28;20409;-69
2023/06/26 08:22:30;;;;;;;1999.90;999.90;;;22.30;99.90;;;;;;5095161;28;20402;-68
2023/06/26 08:24:55;;;;;;;1999.90;999.90;;;22.30;99.90;;;;;;5095427;28;20402;-68
2023/06/26 08:27:21;;;;;;;1999.90;999.90;;;22.30;99.90;;;;;;5095403;28;20206;-69
2023/06/26 08:29:47;;;;;;;1999.90;999.90;;;22.20;99.90;;;;;;5095777;28;20244;-69
2023/06/26 08:32:12;;;;;;;1999.90;999.90;;;22.20;99.90;;;;;;5095100;28;20174;-68
2023/06/26 08:34:38;;;;;;;1999.90;999.90;;;22.20;99.90;;;;;;5095228;28;20170;-69
2023/06/26 08:37:03;;;;;;;1999.90;999.90;;;22.30;99.90;;;;;;5095131;28;20654;-69
2023/06/26 08:39:29;;;;;;;1999.90;999.90;;;22.30;99.90;;;;;;5095116;28;20585;-69
2023/06/26 08:41:55;;;;;;;1999.90;999.90;;;22.40;99.90;;;;;;5095033;28;20180;-68
2023/06/26 08:44:24;;;;;;;1999.90;999.90;;;22.30;99.90;;;;;;5095237;28;20173;-68
2023/06/26 08:46:53;;;;;;;1999.90;999.90;;;22.20;99.90;;;;;;5095126;28;20554;-69
2023/06/26 08:49:25;;;;;;;1999.90;999.90;;;22.10;99.90;;;;;;5094424;28;20434;-68
2023/06/26 08:51:56;;;;;;;1999.90;999.90;;;22.20;99.90;;;;;;5094527;28;20764;-68
2023/06/26 08:54:34;;;;;;;1999.90;999.90;;;22.30;99.90;;;;;;5094924;28;20496;-69
2023/06/26 08:56:59;;;;;;;1999.90;999.90;;;22.30;99.90;;;;;;5094928;28;20421;-74
2023/06/26 08:59:25;;;;;;;1999.90;999.90;;;22.50;99.90;;;;;;5090040;28;20490;-67
2023/06/26 09:01:52;;;;;;;1999.90;999.90;;;22.40;99.90;;;;;;5090468;28;20201;-66
2023/06/26 09:04:17;;;;;;;1999.90;999.90;;;22.40;99.90;;;;;;5090245;28;20469;-67
2023/06/26 09:06:44;;;;;;;1999.90;999.90;;;22.60;99.90;;;;;;5089630;28;20501;-70
2023/06/26 09:09:10;;;;;;;1999.90;999.90;;;22.60;99.90;;;;;;5090859;28;20214;-66
2023/06/26 09:11:36;;;;;;;1999.90;999.90;;;22.60;99.90;;;;;;5089753;28;20527;-67
2023/06/26 09:14:05;;;;;;;1999.90;999.90;;;22.60;99.90;;;;;;5090858;28;20412;-68
2023/06/26 09:16:31;;;;;;;1999.90;999.90;;;22.60;99.90;;;;;;5090604;28;20736;-68
2023/06/26 09:18:56;;;;;;;1999.90;999.90;;;22.60;99.90;;;;;;5089884;28;20502;-68
2023/06/26 09:21:24;;;;;;;1999.90;999.90;;;22.60;99.90;;;;;;5090343;28;20655;-68
2023/06/26 09:23:50;;;;;;;1999.90;999.90;;;22.70;99.90;;;;;;5090147;28;20186;-68
2023/06/26 09:26:16;;;;;;;1999.90;999.90;;;22.90;99.90;;;;;;5089802;28;20405;-67
2023/06/26 09:28:43;;;;;;;1999.90;999.90;;;22.80;99.90;;;;;;5090512;28;20205;-68
2023/06/26 09:31:09;;;;;;;1999.90;999.90;;;22.80;99.90;;;;;;5089564;28;20416;-68
2023/06/26 09:33:37;;;;;;;1999.90;999.90;;;22.70;99.90;;;;;;5089614;28;20410;-68
2023/06/26 09:36:06;;;;;;;1999.90;999.90;;;22.60;99.90;;;;;;5090392;28;20426;-68
2023/06/26 09:38:33;;;;;;;1999.90;999.90;;;22.50;99.90;;;;;;5090158;28;20473;-67
2023/06/26 09:40:59;;;;;;;1999.90;999.90;;;22.50;99.90;;;;;;5089461;28;20409;-68
2023/06/26 09:43:25;;;;;;;1999.90;999.90;;;22.60;99.90;;;;;;5090243;28;20390;-69
2023/06/26 09:45:51;;;;;;;1999.90;999.90;;;22.60;99.90;;;;;;5089785;28;20280;-68
2023/06/26 09:48:17;;;;;;;1999.90;999.90;;;22.60;99.90;;;;;;5089421;28;20990;-67
2023/06/26 09:50:43;;;;;;;1999.90;999.90;;;22.70;99.90;;;;;;5090155;28;20213;-68
2023/06/26 09:53:10;;;;;;;1999.90;999.90;;;23.10;99.90;;;;;;5089336;28;20443;-68
2023/06/26 09:55:37;;;;;;;1999.90;999.90;;;23.40;99.90;;;;;;5088917;28;20199;-68
2023/06/26 09:58:03;;;;;;;1999.90;999.90;;;23.40;99.90;;;;;;5090007;28;20480;-68
2023/06/26 10:00:30;;;;;;;1999.90;999.90;;;23.00;99.90;;;;;;5089330;28;20410;-68
2023/06/26 10:02:56;;;;;;;1999.90;999.90;;;23.20;99.90;;;;;;5088781;28;20782;-69
2023/06/26 10:05:22;;;;;;;1999.90;999.90;;;23.20;99.90;;;;;;5089766;28;20431;-68
2023/06/26 10:07:48;;;;;;;1999.90;999.90;;;23.30;99.90;;;;;;5089047;28;20182;-69
2023/06/26 10:10:15;;;;;;;1999.90;999.90;;;23.60;99.90;;;;;;5088647;28;20236;-68
2023/06/26 10:12:44;;;;;;;1999.90;999.90;;;23.90;99.90;;;;;;5089472;28;21068;-69
2023/06/26 10:15:12;;;;;;;1999.90;999.90;;;24.00;99.90;;;;;;5091146;28;20445;-69
2023/06/26 10:17:41;;;;;;;1999.90;999.90;;;24.40;99.90;;;;;;5093642;28;21186;-69
2023/06/26 10:20:09;;;;;;;1999.90;999.90;;;24.10;99.90;;;;;;5108439;28;20407;-67
2023/06/26 10:22:44;;;;;;;1999.90;999.90;;;23.70;99.90;;;;;;5108371;28;20413;-68
2023/06/26 10:25:11;;;;;;;1999.90;999.90;;;23.50;99.90;;;;;;5108934;28;20402;-70
2023/06/26 10:27:43;;;;;;;1999.90;999.90;;;23.60;99.90;;;;;;5105887;28;20415;-69
2023/06/26 10:30:16;;;;;;;1999.90;999.90;;;23.50;99.90;;;;;;5107875;28;20564;-69
2023/06/26 10:32:42;;;;;;;1999.90;999.90;;;23.50;99.90;;;;;;5109015;28;20397;-67
2023/06/26 10:35:09;;;;;;;1999.90;999.90;;;23.40;99.90;;;;;;5108458;27;20393;-70
2023/06/26 10:37:45;;;;;;;1999.90;999.90;;;23.40;99.90;;;;;;5108726;28;20407;-68
2023/06/26 10:40:12;;;;;;;1999.90;999.90;;;23.30;99.90;;;;;;5108407;28;20767;-68
2023/06/26 10:42:39;;;;;;;1999.90;999.90;;;23.20;99.90;;;;;;5108493;28;20796;-68
2023/06/26 10:45:15;;;;;;;1999.90;999.90;;;23.30;99.90;;;;;;5108909;28;20484;-67
2023/06/26 10:47:42;;;;;;;1999.90;999.90;;;23.40;99.90;;;;;;5111128;28;20404;-68
2023/06/26 10:50:26;;;;;;;1999.90;999.90;;;23.70;99.90;;;;;;5109887;28;20451;-69
2023/06/26 10:53:09;;;;;;;1999.90;999.90;;;23.70;99.90;;;;;;5108556;28;20411;-70
2023/06/26 10:55:35;;;;;;;1999.90;999.90;;;23.50;99.90;;;;;;5108477;28;20398;-71
2023/06/26 10:58:02;;;;;;;1999.90;999.90;;;23.40;99.90;;;;;;5108348;28;20502;-70
2023/06/26 11:00:28;;;;;;;1999.90;999.90;;;23.30;99.90;;;;;;5108470;28;20473;-68
2023/06/26 11:02:54;;;;;;;1999.90;999.90;;;23.50;99.90;;;;;;5105957;28;20894;-70
2023/06/26 11:05:32;;;;;;;1999.90;999.90;;;23.90;99.90;;;;;;5107821;28;20431;-69
2023/06/26 11:08:12;;;;;;;1999.90;999.90;;;24.10;99.90;;;;;;5108373;28;20528;-70
2023/06/26 11:10:55;;;;;;;1999.90;999.90;;;24.50;99.90;;;;;;5107791;28;20931;-70
2023/06/26 11:13:21;;;;;;;1999.90;999.90;;;24.80;99.90;;;;;;5108216;28;20419;-70
2023/06/26 11:15:49;;;;;;;1999.90;999.90;;;24.60;99.90;;;;;;5108350;28;20511;-68
2023/06/26 11:18:15;;;;;;;1999.90;999.90;;;24.50;99.90;;;;;;5108585;28;20180;-70
2023/06/26 11:20:41;;;;;;;1999.90;999.90;;;24.40;99.90;;;;;;5108211;28;20781;-70
2023/06/26 11:23:08;;;;;;;1999.90;999.90;;;24.20;99.90;;;;;;5107567;27;20193;-68
2023/06/26 11:25:36;;;;;;;1999.90;999.90;;;24.10;99.90;;;;;;5108367;28;20451;-69
2023/06/26 11:28:03;;;;;;;1999.90;999.90;;;24.30;99.70;;;;;;5107887;28;20702;-70
2023/06/26 11:30:28;;;;;;;1999.90;999.90;;;24.40;98.10;;;;;;5108230;28;20892;-70
2023/06/26 11:33:09;;;;;;;1999.90;999.90;;;24.40;95.60;;;;;;5108223;28;20389;-70
2023/06/26 11:35:35;;;;;;;1999.90;999.90;;;24.30;94.90;;;;;;5108896;28;20662;-70
2023/06/26 11:38:05;;;;;;;1999.90;999.90;;;24.50;95.50;;;;;;5108018;28;20386;-70
2023/06/26 11:40:33;;;;;;;1999.90;999.90;;;24.90;95.10;;;;;;5107387;28;20517;-71
2023/06/26 11:43:00;;;;;;;1999.90;999.90;;;25.00;93.10;;;;;;5108390;28;20832;-70
2023/06/26 11:45:28;;;;;;;1999.90;999.90;;;24.90;93.30;;;;;;5107989;28;20595;-70
2023/06/26 11:47:56;;;;;;;1999.90;999.90;;;24.80;92.00;;;;;;5107445;28;20403;-70
2023/06/26 11:50:22;;;;;;;1999.90;999.90;;;24.60;79.40;;;;;;5108438;28;20511;-70
2023/06/26 11:52:57;;;;;;;1999.90;999.90;;;24.70;91.00;;;;;;5107922;28;20378;-70
2023/06/26 11:55:26;;;;;;;1999.90;999.90;;;24.90;79.90;;;;;;5107489;28;20859;-70
2023/06/26 11:57:56;;;;;;;1999.90;999.90;;;25.20;84.20;;;;;;5107766;28;20374;-69